This is the latest recevied weather packets stored in our database for station/object RK6MF-10. If no packets are shown the sender has not sent any weather packets the latest 10 day(s).
| Time | Temp. | Humidity | Pressure | Rain* | Wind** | Luminosity | Snow |
|---|---|---|---|---|---|---|---|
| 1787827810 | 29.44° C | 32% | 1009.1 hPa | - | - | - | - |
| 1787826910 | 30.56° C | 30% | 1009.2 hPa | - | - | - | - |
| 1787826010 | 31.11° C | 29% | 1009.3 hPa | - | - | - | - |
| 1787825110 | 33.33° C | 27% | 1009.4 hPa | - | - | - | - |
| 1787824210 | 32.78° C | 28% | 1009.5 hPa | - | - | - | - |
| 1787823310 | 31.11° C | 30% | 1009.6 hPa | - | - | - | - |
| 1787822410 | 30.56° C | 31% | 1009.9 hPa | - | - | - | - |
| 1787821509 | 28.89° C | 32% | 1009.8 hPa | - | - | - | - |
| 1787820609 | 30° C | 31% | 1009.9 hPa | - | - | - | - |
| 1787819709 | 27.22° C | 35% | 1010 hPa | - | - | - | - |
| 1787818808 | 27.22° C | 36% | 1010.1 hPa | - | - | - | - |
| 1787817907 | 28.33° C | 34% | 1010.1 hPa | - | - | - | - |
| 1787817007 | 26.67° C | 36% | 1010.2 hPa | - | - | - | - |
| 1787816107 | 27.78° C | 34% | 1010.3 hPa | - | - | - | - |
| 1787815211 | 25.56° C | 37% | 1010.5 hPa | - | - | - | - |
| 1787814311 | 26.11° C | 36% | 1010.4 hPa | - | - | - | - |
| 1787813410 | 25° C | 39% | 1010.5 hPa | - | - | - | - |
| 1787812510 | 23.89° C | 40% | 1010.5 hPa | - | - | - | - |
| 1787811610 | 23.89° C | 40% | 1010.6 hPa | - | - | - | - |
| 1787810709 | 23.33° C | 41% | 1010.5 hPa | - | - | - | - |
| 1787809809 | 23.33° C | 41% | 1010.5 hPa | - | - | - | - |
| 1787808909 | 22.78° C | 43% | 1010.3 hPa | - | - | - | - |
| 1787808009 | 22.22° C | 43% | 1010.4 hPa | - | - | - | - |
| 1787807109 | 22.22° C | 46% | 1010.5 hPa | - | - | - | - |
| 1787806209 | 22.22° C | 47% | 1010.6 hPa | - | - | - | - |
* Rain since midnight (hover to see other rain measurements)
** Current wind speed in m/s (hover to see current wind gust speed)